Time;durP1;ratioP1;P1;durP2;ratioP2;P2;SDS_P1;SDS_P2;PMS_P1;PMS_P2;Temp;Humidity;BMP_temperature;BMP_pressure;BME280_temperature;BME280_humidity;BME280_pressure;Samples;Min_cycle;Max_cycle;Signal;HPM_P1;HPM_P2
2022/02/20 00:01:35;;;;;;;11.07;1.60;;;;;;;;;;5040783;28;20285;-68
2022/02/20 00:04:02;;;;;;;8.90;1.27;;;;;;;;;;5042277;28;20244;-68
2022/02/20 00:06:28;;;;;;;9.80;1.40;;;;;;;;;;5041766;28;20181;-67
2022/02/20 00:08:54;;;;;;;5.10;1.10;;;;;;;;;;5042129;28;20225;-67
2022/02/20 00:11:20;;;;;;;9.23;1.37;;;;;;;;;;5042348;28;20185;-68
2022/02/20 00:13:45;;;;;;;8.20;1.73;;;;;;;;;;5051015;28;20290;-67
2022/02/20 00:16:11;;;;;;;9.10;1.63;;;;;;;;;;5042203;28;20254;-68
2022/02/20 00:18:36;;;;;;;8.97;1.63;;;;;;;;;;5042232;28;20186;-68
2022/02/20 00:21:02;;;;;;;9.47;1.57;;;;;;;;;;5046835;28;20213;-67
2022/02/20 00:23:27;;;;;;;13.90;2.00;;;;;;;;;;5044601;28;20235;-67
2022/02/20 00:25:52;;;;;;;10.70;2.17;;;;;;;;;;5043875;28;20185;-67
2022/02/20 00:28:18;;;;;;;9.50;1.77;;;;;;;;;;5042014;28;20201;-67
2022/02/20 00:30:43;;;;;;;13.90;2.10;;;;;;;;;;5040936;28;20239;-67
2022/02/20 00:33:09;;;;;;;8.43;2.40;;;;;;;;;;5044822;28;20233;-67
2022/02/20 00:35:35;;;;;;;8.83;1.30;;;;;;;;;;5041856;28;20521;-67
2022/02/20 00:38:05;;;;;;;5.73;1.10;;;;;;;;;;5035179;28;20281;-67
2022/02/20 00:40:31;;;;;;;10.43;1.53;;;;;;;;;;5044465;28;20186;-67
2022/02/20 00:42:56;;;;;;;8.40;1.23;;;;;;;;;;5045259;28;20197;-68
2022/02/20 00:45:22;;;;;;;6.37;1.00;;;;;;;;;;5041430;28;20178;-67
2022/02/20 00:47:47;;;;;;;3.53;0.90;;;;;;;;;;5043862;28;20220;-67
2022/02/20 00:50:13;;;;;;;8.03;1.20;;;;;;;;;;5040391;28;20305;-67
2022/02/20 00:52:38;;;;;;;9.77;1.60;;;;;;;;;;5043672;28;20323;-67
2022/02/20 00:55:04;;;;;;;6.17;0.93;;;;;;;;;;5043000;28;20528;-67
2022/02/20 00:57:29;;;;;;;7.33;1.90;;;;;;;;;;5046405;28;20624;-67
2022/02/20 00:59:55;;;;;;;8.23;2.10;;;;;;;;;;5043394;28;20546;-67
2022/02/20 01:02:20;;;;;;;9.23;1.97;;;;;;;;;;5042261;28;20292;-67
2022/02/20 01:04:46;;;;;;;8.50;1.70;;;;;;;;;;5042130;28;20220;-67
2022/02/20 01:07:11;;;;;;;11.33;1.73;;;;;;;;;;5044157;28;20206;-67
2022/02/20 01:09:36;;;;;;;16.03;2.70;;;;;;;;;;5041006;28;20222;-67
2022/02/20 01:12:03;;;;;;;12.53;2.40;;;;;;;;;;5044700;28;20210;-67
2022/02/20 01:14:28;;;;;;;5.83;1.60;;;;;;;;;;5041204;28;20253;-67
2022/02/20 01:16:53;;;;;;;10.20;2.50;;;;;;;;;;5035383;28;20273;-68
2022/02/20 01:19:19;;;;;;;8.20;2.40;;;;;;;;;;5039513;28;20209;-67
2022/02/20 01:21:44;;;;;;;8.40;2.50;;;;;;;;;;5043393;28;20211;-68
2022/02/20 01:24:10;;;;;;;8.37;2.10;;;;;;;;;;5040847;28;20209;-67
2022/02/20 01:26:36;;;;;;;8.10;2.20;;;;;;;;;;5042534;28;20189;-67
2022/02/20 01:29:02;;;;;;;8.87;2.03;;;;;;;;;;5039915;28;20233;-67
2022/02/20 01:31:27;;;;;;;11.73;2.80;;;;;;;;;;5040066;28;20248;-67
2022/02/20 01:33:52;;;;;;;6.50;2.30;;;;;;;;;;5040546;28;20290;-67
2022/02/20 01:36:18;;;;;;;10.43;2.73;;;;;;;;;;5043983;28;20657;-68
2022/02/20 01:38:43;;;;;;;14.73;2.50;;;;;;;;;;5039567;28;20497;-67
2022/02/20 01:41:08;;;;;;;9.93;2.57;;;;;;;;;;5043697;28;20267;-68
2022/02/20 01:43:34;;;;;;;8.60;2.27;;;;;;;;;;5039393;28;20688;-67
2022/02/20 01:45:59;;;;;;;11.40;2.80;;;;;;;;;;5042225;28;20214;-67
2022/02/20 01:48:25;;;;;;;5.67;2.27;;;;;;;;;;5039718;28;20742;-67
2022/02/20 01:50:51;;;;;;;9.63;2.70;;;;;;;;;;5044472;28;20181;-68
2022/02/20 01:53:18;;;;;;;9.37;2.67;;;;;;;;;;5040236;28;20189;-67
2022/02/20 01:55:43;;;;;;;6.90;2.93;;;;;;;;;;5036981;28;20193;-68
2022/02/20 01:58:09;;;;;;;10.60;3.20;;;;;;;;;;5040334;28;20193;-67
2022/02/20 02:00:34;;;;;;;8.53;2.27;;;;;;;;;;5041669;28;20318;-67
2022/02/20 02:02:59;;;;;;;8.60;2.80;;;;;;;;;;5040321;28;20466;-67
2022/02/20 02:05:27;;;;;;;7.37;2.77;;;;;;;;;;5041739;28;20842;-67
2022/02/20 02:07:52;;;;;;;9.23;2.60;;;;;;;;;;5040119;28;20721;-68
2022/02/20 02:10:17;;;;;;;4.93;2.93;;;;;;;;;;5042390;28;20225;-67
2022/02/20 02:12:44;;;;;;;6.60;3.80;;;;;;;;;;5043266;28;20646;-67
2022/02/20 02:15:11;;;;;;;7.43;3.33;;;;;;;;;;5041774;28;20182;-67
2022/02/20 02:17:37;;;;;;;6.63;2.77;;;;;;;;;;5037266;28;20654;-67
2022/02/20 02:20:04;;;;;;;6.47;2.80;;;;;;;;;;5041956;28;20207;-67
2022/02/20 02:22:29;;;;;;;6.63;3.10;;;;;;;;;;5038507;28;20676;-67
2022/02/20 02:24:57;;;;;;;6.57;2.87;;;;;;;;;;5042493;28;20182;-67
2022/02/20 02:27:22;;;;;;;5.53;3.10;;;;;;;;;;5043329;28;20194;-68
2022/02/20 02:29:49;;;;;;;6.00;3.33;;;;;;;;;;5042681;28;20297;-68
2022/02/20 02:32:15;;;;;;;3.27;2.60;;;;;;;;;;5036869;28;20303;-67
2022/02/20 02:34:41;;;;;;;7.57;3.37;;;;;;;;;;5039754;28;20185;-67
2022/02/20 02:37:07;;;;;;;5.43;3.57;;;;;;;;;;5035076;28;20307;-67
2022/02/20 02:39:32;;;;;;;5.63;2.90;;;;;;;;;;5044060;28;20230;-67
2022/02/20 02:41:58;;;;;;;5.67;3.67;;;;;;;;;;5041995;28;20212;-67
2022/02/20 02:44:24;;;;;;;6.10;3.83;;;;;;;;;;5046177;28;20275;-67
2022/02/20 02:46:49;;;;;;;4.77;3.30;;;;;;;;;;5045690;28;20276;-67
2022/02/20 02:49:14;;;;;;;7.30;3.70;;;;;;;;;;5045105;28;20295;-67
2022/02/20 02:51:40;;;;;;;5.13;2.47;;;;;;;;;;5036799;28;20196;-67
2022/02/20 02:54:10;;;;;;;4.83;3.23;;;;;;;;;;5042673;28;20192;-68
2022/02/20 02:56:35;;;;;;;4.07;2.37;;;;;;;;;;5043636;28;20196;-67
2022/02/20 02:59:01;;;;;;;3.27;2.57;;;;;;;;;;5042739;28;20722;-67
2022/02/20 03:01:26;;;;;;;4.10;2.83;;;;;;;;;;5043102;28;20193;-66
2022/02/20 03:03:52;;;;;;;5.07;3.10;;;;;;;;;;5045051;28;20189;-67
2022/02/20 03:06:17;;;;;;;5.50;2.60;;;;;;;;;;5035420;28;20198;-67
2022/02/20 03:08:43;;;;;;;4.53;2.30;;;;;;;;;;5044389;28;20291;-67
2022/02/20 03:11:08;;;;;;;4.07;2.80;;;;;;;;;;5049471;28;20702;-67
2022/02/20 03:13:35;;;;;;;3.20;2.30;;;;;;;;;;5043861;28;20189;-68
2022/02/20 03:16:01;;;;;;;4.40;2.57;;;;;;;;;;5048068;28;20286;-66
2022/02/20 03:18:29;;;;;;;4.20;1.93;;;;;;;;;;5043335;28;20233;-67
2022/02/20 03:20:56;;;;;;;2.47;1.80;;;;;;;;;;5039868;28;20277;-67
2022/02/20 03:23:21;;;;;;;2.50;1.80;;;;;;;;;;5042487;28;20194;-67
2022/02/20 03:25:46;;;;;;;3.23;1.70;;;;;;;;;;5043147;28;20175;-67
2022/02/20 03:28:12;;;;;;;2.13;1.47;;;;;;;;;;5043250;28;20209;-67
2022/02/20 03:30:37;;;;;;;3.73;1.30;;;;;;;;;;5042698;28;20214;-67
2022/02/20 03:33:03;;;;;;;2.50;1.17;;;;;;;;;;5044091;28;20251;-67
2022/02/20 03:35:28;;;;;;;1.63;1.00;;;;;;;;;;5046613;28;20193;-66
2022/02/20 03:37:54;;;;;;;2.03;1.23;;;;;;;;;;5047983;28;20189;-67
2022/02/20 03:40:19;;;;;;;6.93;1.13;;;;;;;;;;5045426;28;20180;-67
2022/02/20 03:42:44;;;;;;;3.23;1.13;;;;;;;;;;5043096;28;20213;-67
2022/02/20 03:45:10;;;;;;;2.83;1.50;;;;;;;;;;5044832;28;20209;-66
2022/02/20 03:47:36;;;;;;;2.07;1.07;;;;;;;;;;5043883;28;20186;-67
2022/02/20 03:50:02;;;;;;;2.50;1.07;;;;;;;;;;5048691;28;20202;-67
2022/02/20 03:52:29;;;;;;;1.77;1.00;;;;;;;;;;5042435;28;20205;-67
2022/02/20 03:54:54;;;;;;;1.70;1.10;;;;;;;;;;5051519;28;20189;-67
2022/02/20 03:57:19;;;;;;;2.23;0.80;;;;;;;;;;5040432;28;20244;-67
2022/02/20 03:59:45;;;;;;;3.93;0.70;;;;;;;;;;5042498;28;20216;-67
2022/02/20 04:02:10;;;;;;;2.50;0.70;;;;;;;;;;5038930;28;20224;-67
2022/02/20 04:04:35;;;;;;;2.23;0.50;;;;;;;;;;5044536;28;20186;-67
2022/02/20 04:07:01;;;;;;;4.47;0.67;;;;;;;;;;5036130;28;20279;-67
2022/02/20 04:09:26;;;;;;;2.13;0.90;;;;;;;;;;5038777;28;20226;-66
2022/02/20 04:11:51;;;;;;;2.07;0.47;;;;;;;;;;5044168;28;20205;-67
2022/02/20 04:14:17;;;;;;;2.20;0.97;;;;;;;;;;5041286;28;20686;-67
2022/02/20 04:16:42;;;;;;;1.93;0.53;;;;;;;;;;5047118;28;20688;-67
2022/02/20 04:19:08;;;;;;;3.20;0.53;;;;;;;;;;5042087;28;20204;-67
2022/02/20 04:21:33;;;;;;;2.70;0.83;;;;;;;;;;5036888;28;20601;-66
2022/02/20 04:23:58;;;;;;;3.57;0.50;;;;;;;;;;5042924;28;20327;-67
2022/02/20 04:26:24;;;;;;;2.80;0.57;;;;;;;;;;5045191;28;20185;-67
2022/02/20 04:28:49;;;;;;;3.90;0.70;;;;;;;;;;5040773;28;20205;-67
2022/02/20 04:31:15;;;;;;;2.87;0.73;;;;;;;;;;5049320;28;20220;-67
2022/02/20 04:33:40;;;;;;;2.47;0.60;;;;;;;;;;5044432;28;20527;-67
2022/02/20 04:36:05;;;;;;;4.67;0.63;;;;;;;;;;5048664;28;20197;-66
2022/02/20 04:38:31;;;;;;;2.07;0.90;;;;;;;;;;5046137;28;20185;-66
2022/02/20 04:40:56;;;;;;;1.90;0.90;;;;;;;;;;5047464;28;20546;-66
2022/02/20 04:43:21;;;;;;;3.10;0.80;;;;;;;;;;5042960;28;20231;-67
2022/02/20 04:45:47;;;;;;;3.57;0.90;;;;;;;;;;5049446;28;20182;-67
2022/02/20 04:48:12;;;;;;;3.63;1.00;;;;;;;;;;5044512;28;20213;-67
2022/02/20 04:50:38;;;;;;;2.00;0.83;;;;;;;;;;5049751;28;20554;-67
2022/02/20 04:53:03;;;;;;;6.67;1.20;;;;;;;;;;5041969;28;20208;-66
2022/02/20 04:55:28;;;;;;;2.20;0.93;;;;;;;;;;5047538;28;20669;-67
2022/02/20 04:57:54;;;;;;;5.23;1.20;;;;;;;;;;5043303;28;20276;-67
2022/02/20 05:00:19;;;;;;;5.00;1.40;;;;;;;;;;5049923;28;20197;-67
2022/02/20 05:02:44;;;;;;;1.00;0.90;;;;;;;;;;5043113;28;20189;-67
2022/02/20 05:05:10;;;;;;;5.63;1.00;;;;;;;;;;5052435;28;20242;-67
2022/02/20 05:07:36;;;;;;;7.60;1.27;;;;;;;;;;5039918;28;20240;-68
2022/02/20 05:10:02;;;;;;;3.57;1.33;;;;;;;;;;5054579;28;20233;-67
2022/02/20 05:12:27;;;;;;;6.10;1.60;;;;;;;;;;5041976;28;20204;-67
2022/02/20 05:14:52;;;;;;;2.63;1.47;;;;;;;;;;5054540;28;20427;-67
2022/02/20 05:17:18;;;;;;;5.00;2.00;;;;;;;;;;5039740;28;20224;-67
2022/02/20 05:19:43;;;;;;;7.03;1.90;;;;;;;;;;5049806;28;20268;-67
2022/02/20 05:22:09;;;;;;;2.77;1.50;;;;;;;;;;5041258;28;20577;-67
2022/02/20 05:24:34;;;;;;;6.53;1.80;;;;;;;;;;5045716;28;20500;-68
2022/02/20 05:26:59;;;;;;;3.77;2.03;;;;;;;;;;5041156;28;20276;-67
2022/02/20 05:29:25;;;;;;;9.17;2.10;;;;;;;;;;5045680;28;20224;-67
2022/02/20 05:31:50;;;;;;;8.37;2.23;;;;;;;;;;5047732;28;20213;-67
2022/02/20 05:34:15;;;;;;;4.60;2.20;;;;;;;;;;5040470;28;20272;-66
2022/02/20 05:36:41;;;;;;;6.23;1.87;;;;;;;;;;5042489;28;20278;-67
2022/02/20 05:39:06;;;;;;;3.70;2.23;;;;;;;;;;5042917;28;20186;-67
2022/02/20 05:41:31;;;;;;;9.07;1.87;;;;;;;;;;5042111;28;20602;-67
2022/02/20 05:43:57;;;;;;;5.20;2.30;;;;;;;;;;5045598;28;20196;-68
2022/02/20 05:46:22;;;;;;;3.80;1.80;;;;;;;;;;5040219;28;20190;-67
2022/02/20 05:48:47;;;;;;;5.70;2.10;;;;;;;;;;5040377;28;20240;-67
2022/02/20 05:51:13;;;;;;;6.20;1.87;;;;;;;;;;5041190;28;20189;-68
2022/02/20 05:53:38;;;;;;;4.80;1.83;;;;;;;;;;5042330;28;20189;-67
2022/02/20 05:56:04;;;;;;;5.20;2.00;;;;;;;;;;5046839;28;20216;-67
2022/02/20 05:58:29;;;;;;;4.80;1.63;;;;;;;;;;5042581;28;20180;-67
2022/02/20 06:00:54;;;;;;;6.27;1.50;;;;;;;;;;5039037;28;20784;-67
2022/02/20 06:03:20;;;;;;;6.13;1.90;;;;;;;;;;5039394;28;20207;-68
2022/02/20 06:05:45;;;;;;;7.37;2.00;;;;;;;;;;5047719;28;20280;-67
2022/02/20 06:08:11;;;;;;;5.87;1.70;;;;;;;;;;5040759;28;20242;-66
2022/02/20 06:10:37;;;;;;;6.20;1.90;;;;;;;;;;5043347;28;20739;-67
2022/02/20 06:13:03;;;;;;;6.00;2.00;;;;;;;;;;5040039;28;20189;-67
2022/02/20 06:15:28;;;;;;;5.40;2.23;;;;;;;;;;5044396;28;20235;-67
2022/02/20 06:17:55;;;;;;;5.50;2.30;;;;;;;;;;5043915;28;20954;-67
2022/02/20 06:20:20;;;;;;;6.80;2.10;;;;;;;;;;5050324;28;20185;-69
2022/02/20 06:22:45;;;;;;;4.60;1.60;;;;;;;;;;5052201;28;20206;-70
2022/02/20 06:25:11;;;;;;;8.97;2.30;;;;;;;;;;5045074;28;20689;-70
2022/02/20 06:27:36;;;;;;;4.13;2.07;;;;;;;;;;5045824;28;20574;-70
2022/02/20 06:30:03;;;;;;;4.97;2.40;;;;;;;;;;5046680;28;20237;-71
2022/02/20 06:32:28;;;;;;;5.13;2.30;;;;;;;;;;5043787;28;20305;-69
2022/02/20 06:34:53;;;;;;;8.73;3.03;;;;;;;;;;5045521;28;20732;-71
2022/02/20 06:37:19;;;;;;;7.33;2.97;;;;;;;;;;5046622;28;20191;-71
2022/02/20 06:39:45;;;;;;;9.10;3.23;;;;;;;;;;5049775;28;20249;-71
2022/02/20 06:42:15;;;;;;;8.30;3.47;;;;;;;;;;5047086;28;20232;-71
2022/02/20 06:44:41;;;;;;;12.40;3.83;;;;;;;;;;5049871;28;20575;-70
2022/02/20 06:47:07;;;;;;;7.50;3.90;;;;;;;;;;5044116;28;20198;-72
2022/02/20 06:49:33;;;;;;;10.43;3.93;;;;;;;;;;5044173;28;20521;-72
2022/02/20 06:51:58;;;;;;;10.07;4.40;;;;;;;;;;5048008;28;20199;-71
2022/02/20 06:54:27;;;;;;;12.03;4.10;;;;;;;;;;5043921;28;20185;-70
2022/02/20 06:56:54;;;;;;;10.53;4.27;;;;;;;;;;5049529;28;20289;-70
2022/02/20 06:59:19;;;;;;;9.67;4.20;;;;;;;;;;5042965;28;20243;-70
2022/02/20 07:01:45;;;;;;;13.17;4.80;;;;;;;;;;5047930;28;20194;-71
2022/02/20 07:04:11;;;;;;;10.30;4.50;;;;;;;;;;5042126;28;20189;-71
2022/02/20 07:06:37;;;;;;;11.43;5.13;;;;;;;;;;5043982;28;20211;-72
2022/02/20 07:09:02;;;;;;;12.53;4.77;;;;;;;;;;5043943;28;20209;-71
2022/02/20 07:11:29;;;;;;;13.43;5.60;;;;;;;;;;5053036;28;20231;-71
2022/02/20 07:13:54;;;;;;;14.87;6.37;;;;;;;;;;5056049;28;20189;-70
2022/02/20 07:16:20;;;;;;;12.77;4.50;;;;;;;;;;5047412;28;20189;-71
2022/02/20 07:18:45;;;;;;;11.83;5.50;;;;;;;;;;5048645;28;20180;-71
2022/02/20 07:21:10;;;;;;;10.23;4.97;;;;;;;;;;4347360;28;10000713;-71
2022/02/20 07:23:36;;;;;;;16.67;5.73;;;;;;;;;;5045062;28;20679;-72
2022/02/20 07:26:01;;;;;;;13.80;6.00;;;;;;;;;;5042848;28;20614;-72
2022/02/20 07:28:26;;;;;;;11.40;5.80;;;;;;;;;;5046501;28;20228;-71
2022/02/20 07:30:52;;;;;;;14.53;5.90;;;;;;;;;;5040536;28;20215;-71
2022/02/20 07:33:17;;;;;;;13.93;6.30;;;;;;;;;;5044713;28;20299;-69
2022/02/20 07:35:43;;;;;;;14.33;5.60;;;;;;;;;;5045345;28;20299;-70
2022/02/20 07:38:08;;;;;;;12.37;5.80;;;;;;;;;;5052416;28;20247;-71
2022/02/20 07:40:34;;;;;;;12.67;6.20;;;;;;;;;;5045457;28;20591;-70
2022/02/20 07:42:59;;;;;;;15.73;5.63;;;;;;;;;;5046226;28;20182;-68
2022/02/20 07:45:25;;;;;;;14.73;6.20;;;;;;;;;;5046575;28;20239;-69
2022/02/20 07:47:57;;;;;;;15.10;6.33;;;;;;;;;;5043492;28;20220;-70
2022/02/20 07:50:24;;;;;;;15.57;6.63;;;;;;;;;;5048558;28;20246;-70
2022/02/20 07:52:50;;;;;;;22.37;6.80;;;;;;;;;;5042994;28;20660;-68
2022/02/20 07:55:16;;;;;;;9.07;5.87;;;;;;;;;;5047238;28;20258;-70
2022/02/20 07:57:42;;;;;;;12.27;6.10;;;;;;;;;;5039070;28;20853;-69
2022/02/20 08:00:08;;;;;;;13.80;5.97;;;;;;;;;;5048598;28;20181;-68
2022/02/20 08:02:34;;;;;;;14.20;5.90;;;;;;;;;;5037687;28;20254;-69
2022/02/20 08:04:59;;;;;;;11.87;5.43;;;;;;;;;;5049636;28;20269;-70
2022/02/20 08:07:24;;;;;;;12.53;5.90;;;;;;;;;;5041150;28;20269;-71
2022/02/20 08:09:51;;;;;;;13.70;5.97;;;;;;;;;;5044553;28;20356;-70
2022/02/20 08:12:17;;;;;;;15.30;5.00;;;;;;;;;;5043352;28;20174;-70
2022/02/20 08:14:43;;;;;;;9.97;5.33;;;;;;;;;;5042635;28;20185;-72
2022/02/20 08:17:08;;;;;;;9.03;4.67;;;;;;;;;;5046236;28;20344;-69
2022/02/20 08:19:33;;;;;;;12.43;4.40;;;;;;;;;;5053049;28;20174;-70
2022/02/20 08:21:59;;;;;;;8.43;4.40;;;;;;;;;;5043242;28;20181;-71
2022/02/20 08:24:24;;;;;;;8.20;4.07;;;;;;;;;;5041055;28;20300;-69
2022/02/20 08:26:50;;;;;;;8.87;3.77;;;;;;;;;;5047347;28;20272;-68
2022/02/20 08:29:20;;;;;;;11.93;4.27;;;;;;;;;;5043426;28;20292;-69
2022/02/20 08:31:46;;;;;;;9.07;4.00;;;;;;;;;;5051284;28;20563;-69
2022/02/20 08:34:11;;;;;;;14.80;4.70;;;;;;;;;;5044635;28;20189;-68
2022/02/20 08:36:38;;;;;;;13.43;4.10;;;;;;;;;;5050685;28;20169;-68
2022/02/20 08:39:03;;;;;;;12.40;3.90;;;;;;;;;;5041645;28;20537;-68
2022/02/20 08:41:29;;;;;;;11.13;3.73;;;;;;;;;;5042491;28;20181;-68
2022/02/20 08:43:54;;;;;;;10.47;3.90;;;;;;;;;;5039970;28;20198;-68
2022/02/20 08:46:19;;;;;;;8.83;3.43;;;;;;;;;;5041177;28;20189;-69
2022/02/20 08:48:46;;;;;;;8.83;3.20;;;;;;;;;;5041688;28;20576;-69
2022/02/20 08:51:11;;;;;;;9.17;3.67;;;;;;;;;;5046625;28;20272;-68
2022/02/20 08:53:38;;;;;;;7.60;3.20;;;;;;;;;;5043898;28;20377;-68
2022/02/20 08:56:06;;;;;;;10.57;3.10;;;;;;;;;;5049483;28;20644;-69
2022/02/20 08:58:31;;;;;;;9.40;2.87;;;;;;;;;;5042022;28;20209;-70
2022/02/20 09:00:57;;;;;;;8.67;2.80;;;;;;;;;;5046957;28;20213;-71
2022/02/20 09:03:22;;;;;;;6.67;2.80;;;;;;;;;;5048564;28;20182;-70
2022/02/20 09:05:47;;;;;;;9.13;3.00;;;;;;;;;;5046291;28;20189;-71
2022/02/20 09:08:13;;;;;;;7.97;3.00;;;;;;;;;;5048485;28;20243;-70
2022/02/20 09:10:40;;;;;;;7.20;3.00;;;;;;;;;;5043470;28;20294;-71
2022/02/20 09:13:06;;;;;;;6.00;2.70;;;;;;;;;;5036179;28;20254;-69
2022/02/20 09:15:31;;;;;;;7.93;2.70;;;;;;;;;;5034820;28;20236;-69
2022/02/20 09:17:56;;;;;;;9.90;2.77;;;;;;;;;;5050202;28;20938;-71
2022/02/20 09:20:22;;;;;;;8.93;2.63;;;;;;;;;;5041106;28;20182;-72
2022/02/20 09:22:47;;;;;;;8.20;2.73;;;;;;;;;;5040450;28;20193;-70
2022/02/20 09:25:13;;;;;;;7.57;2.53;;;;;;;;;;5039261;28;20200;-72
2022/02/20 09:27:42;;;;;;;8.63;2.90;;;;;;;;;;5049187;28;20189;-71
2022/02/20 09:30:07;;;;;;;7.80;2.90;;;;;;;;;;5044587;28;20197;-70
2022/02/20 09:32:33;;;;;;;11.23;3.23;;;;;;;;;;5043945;28;20653;-68
2022/02/20 09:34:58;;;;;;;6.63;3.03;;;;;;;;;;5043103;28;20576;-68
2022/02/20 09:37:25;;;;;;;6.57;3.00;;;;;;;;;;5043552;28;20189;-67
2022/02/20 09:39:51;;;;;;;9.57;3.17;;;;;;;;;;5043205;28;20260;-68
2022/02/20 09:42:16;;;;;;;5.97;2.60;;;;;;;;;;5045804;28;20320;-69
2022/02/20 09:44:46;;;;;;;11.47;3.37;;;;;;;;;;5047212;28;20190;-67
2022/02/20 09:47:12;;;;;;;7.47;2.90;;;;;;;;;;5043341;28;20311;-68
2022/02/20 09:49:38;;;;;;;6.63;3.57;;;;;;;;;;5042121;28;20672;-67
2022/02/20 09:52:04;;;;;;;10.80;3.43;;;;;;;;;;5039417;28;20287;-67
2022/02/20 09:54:30;;;;;;;18.90;4.55;;;;;;;;;;5051428;28;20752;-66
2022/02/20 09:56:56;;;;;;;13.80;4.13;;;;;;;;;;5044378;28;20577;-67
2022/02/20 09:59:21;;;;;;;16.23;4.97;;;;;;;;;;5046176;28;20410;-67
2022/02/20 10:02:08;;;;;;;11.27;4.10;;;;;;;;;;5046529;28;20591;-67
2022/02/20 10:04:41;;;;;;;13.30;3.88;;;;;;;;;;5043379;28;20185;-67
2022/02/20 10:07:24;;;;;;;14.87;4.70;;;;;;;;;;5041779;28;20185;-67
2022/02/20 10:09:50;;;;;;;18.38;4.07;;;;;;;;;;5043417;28;20719;-67
2022/02/20 10:12:26;;;;;;;17.42;4.25;;;;;;;;;;5043448;28;20177;-67
2022/02/20 10:14:52;;;;;;;15.57;3.95;;;;;;;;;;5037454;28;20184;-68
2022/02/20 10:17:21;;;;;;;19.50;4.50;;;;;;;;;;5044295;28;20626;-67
2022/02/20 10:20:00;;;;;;;21.92;4.30;;;;;;;;;;5039726;28;20268;-67
2022/02/20 10:22:30;;;;;;;16.23;3.95;;;;;;;;;;5045729;28;20185;-67
2022/02/20 10:25:04;;;;;;;18.23;4.13;;;;;;;;;;5041752;28;20667;-67
2022/02/20 10:27:29;;;;;;;17.23;3.67;;;;;;;;;;5042929;28;20186;-66
2022/02/20 10:30:14;;;;;;;19.48;4.20;;;;;;;;;;5040903;28;20465;-67
2022/02/20 10:32:40;;;;;;;25.33;4.50;;;;;;;;;;5048415;28;20323;-67
2022/02/20 10:35:16;;;;;;;30.80;4.78;;;;;;;;;;5041295;28;20186;-67
2022/02/20 10:37:42;;;;;;;20.05;4.38;;;;;;;;;;5043090;28;20194;-66
2022/02/20 10:40:25;;;;;;;24.25;4.18;;;;;;;;;;5046397;28;20546;-66
2022/02/20 10:42:56;;;;;;;22.58;4.95;;;;;;;;;;5050750;28;20218;-68
2022/02/20 10:45:32;;;;;;;23.80;4.82;;;;;;;;;;5039290;28;20281;-66
2022/02/20 10:47:58;;;;;;;27.88;4.63;;;;;;;;;;5043404;28;20181;-66
2022/02/20 10:50:26;;;;;;;17.52;4.88;;;;;;;;;;5049452;28;20479;-66
2022/02/20 10:53:19;;;;;;;23.08;5.32;;;;;;;;;;5045212;28;20188;-66
2022/02/20 10:55:50;;;;;;;27.05;5.30;;;;;;;;;;5045496;28;20192;-66
2022/02/20 10:58:24;;;;;;;24.92;4.47;;;;;;;;;;5042654;28;20252;-66
2022/02/20 11:00:54;;;;;;;25.20;4.18;;;;;;;;;;5050467;28;20628;-66
2022/02/20 11:03:22;;;;;;;29.17;4.78;;;;;;;;;;5041659;28;20246;-66
2022/02/20 11:05:48;;;;;;;20.83;4.50;;;;;;;;;;5047674;28;20181;-66
2022/02/20 11:08:15;;;;;;;29.15;6.20;;;;;;;;;;5042626;28;20243;-67
2022/02/20 11:10:42;;;;;;;18.42;4.43;;;;;;;;;;5041132;28;20213;-67
2022/02/20 11:13:10;;;;;;;26.35;5.20;;;;;;;;;;5043862;28;20186;-67
2022/02/20 11:15:36;;;;;;;29.88;5.68;;;;;;;;;;5045512;28;20189;-66
2022/02/20 11:18:05;;;;;;;23.85;4.93;;;;;;;;;;5044190;28;20231;-67
2022/02/20 11:20:32;;;;;;;33.00;5.05;;;;;;;;;;5045014;28;20649;-67
2022/02/20 11:23:01;;;;;;;34.88;5.07;;;;;;;;;;5045855;28;20720;-67
2022/02/20 11:25:27;;;;;;;25.73;4.93;;;;;;;;;;5045466;28;20602;-67
2022/02/20 11:27:56;;;;;;;31.67;5.25;;;;;;;;;;5048415;28;20186;-67
2022/02/20 11:30:22;;;;;;;29.85;5.78;;;;;;;;;;5045196;28;20260;-67
2022/02/20 11:32:48;;;;;;;26.45;4.70;;;;;;;;;;5050293;28;20632;-67
2022/02/20 11:35:14;;;;;;;27.40;5.18;;;;;;;;;;5043188;28;20295;-67
2022/02/20 11:37:52;;;;;;;27.90;4.57;;;;;;;;;;5042798;28;20708;-67
2022/02/20 11:40:18;;;;;;;30.48;4.72;;;;;;;;;;5044765;28;20311;-67
2022/02/20 11:42:59;;;;;;;24.83;4.45;;;;;;;;;;5046916;28;20251;-67
2022/02/20 11:45:25;;;;;;;32.13;4.75;;;;;;;;;;5045087;28;20620;-67
2022/02/20 11:48:04;;;;;;;27.60;4.40;;;;;;;;;;5037966;28;20714;-67
2022/02/20 11:50:33;;;;;;;22.48;4.80;;;;;;;;;;5043892;28;20217;-67
2022/02/20 11:53:11;;;;;;;23.48;4.68;;;;;;;;;;5047680;28;20195;-68
2022/02/20 11:55:39;;;;;;;23.08;4.75;;;;;;;;;;5043913;28;20542;-67
2022/02/20 11:58:11;;;;;;;20.67;4.70;;;;;;;;;;5056979;28;20192;-67
2022/02/20 12:00:37;;;;;;;26.80;4.53;;;;;;;;;;5042027;28;20201;-67
2022/02/20 12:03:17;;;;;;;20.60;4.95;;;;;;;;;;5044950;28;20193;-68
2022/02/20 12:06:14;;;;;;;31.67;5.78;;;;;;;;;;5042853;28;20173;-68
2022/02/20 12:08:42;;;;;;;28.83;4.38;;;;;;;;;;5042785;28;20205;-67
2022/02/20 12:11:13;;;;;;;22.45;4.10;;;;;;;;;;5047155;28;20225;-67
2022/02/20 12:13:50;;;;;;;22.85;3.55;;;;;;;;;;5043885;28;20254;-67
2022/02/20 12:16:32;;;;;;;20.52;4.10;;;;;;;;;;5046083;28;20193;-67
2022/02/20 12:19:18;;;;;;;23.05;3.40;;;;;;;;;;5038730;28;20190;-66
2022/02/20 12:21:56;;;;;;;26.77;3.45;;;;;;;;;;5040334;28;20530;-67
2022/02/20 12:24:39;;;;;;;23.83;3.97;;;;;;;;;;5041667;28;20188;-66
2022/02/20 12:27:05;;;;;;;22.70;3.53;;;;;;;;;;5042306;28;20652;-67
2022/02/20 12:29:35;;;;;;;18.77;3.22;;;;;;;;;;5040511;28;20246;-69
2022/02/20 12:32:02;;;;;;;16.90;2.80;;;;;;;;;;5042962;28;20215;-70
2022/02/20 12:34:45;;;;;;;15.55;3.20;;;;;;;;;;5048376;28;20173;-69
2022/02/20 12:37:11;;;;;;;14.38;2.70;;;;;;;;;;5043300;28;20359;-69
2022/02/20 12:39:37;;;;;;;17.50;3.10;;;;;;;;;;5053442;28;20184;-69
2022/02/20 12:42:04;;;;;;;14.93;3.30;;;;;;;;;;5043117;28;20200;-69
2022/02/20 12:44:31;;;;;;;17.48;3.10;;;;;;;;;;5043867;28;20690;-69
2022/02/20 12:46:57;;;;;;;14.90;3.20;;;;;;;;;;5041120;28;20189;-68
2022/02/20 12:49:23;;;;;;;16.77;2.75;;;;;;;;;;5043813;28;20205;-69
2022/02/20 12:51:48;;;;;;;21.25;3.38;;;;;;;;;;5042900;28;20192;-69
2022/02/20 12:54:14;;;;;;;18.65;3.55;;;;;;;;;;5056012;28;20197;-69
2022/02/20 12:56:39;;;;;;;16.80;3.17;;;;;;;;;;5042150;28;20190;-70
2022/02/20 12:59:04;;;;;;;20.92;3.42;;;;;;;;;;5047332;28;20299;-71
2022/02/20 13:01:29;;;;;;;21.70;2.88;;;;;;;;;;5043481;28;20213;-69
2022/02/20 13:03:55;;;;;;;14.98;2.63;;;;;;;;;;5044851;28;20644;-70
2022/02/20 13:06:38;;;;;;;19.70;2.30;;;;;;;;;;5041451;28;20276;-69
2022/02/20 13:09:05;;;;;;;19.00;3.28;;;;;;;;;;5049798;28;20312;-69
2022/02/20 13:11:30;;;;;;;18.10;3.08;;;;;;;;;;5044057;28;20366;-70
2022/02/20 13:14:09;;;;;;;13.82;2.75;;;;;;;;;;5035946;28;20208;-72
2022/02/20 13:16:34;;;;;;;14.18;2.90;;;;;;;;;;5046648;28;20212;-69
2022/02/20 13:18:59;;;;;;;17.27;2.67;;;;;;;;;;5043686;28;20221;-71
2022/02/20 13:21:29;;;;;;;15.05;3.08;;;;;;;;;;5043983;28;20268;-70
2022/02/20 13:23:54;;;;;;;17.48;2.78;;;;;;;;;;5042032;28;20705;-71
2022/02/20 13:26:22;;;;;;;15.23;2.70;;;;;;;;;;5044880;28;20185;-72
2022/02/20 13:28:50;;;;;;;12.50;2.08;;;;;;;;;;5040132;28;20209;-72
2022/02/20 13:31:18;;;;;;;15.88;2.80;;;;;;;;;;5055899;28;20196;-70
2022/02/20 13:33:47;;;;;;;16.92;2.63;;;;;;;;;;5043269;28;20839;-69
2022/02/20 13:36:18;;;;;;;10.98;2.80;;;;;;;;;;5053471;28;20258;-71
2022/02/20 13:38:46;;;;;;;14.75;2.53;;;;;;;;;;5044987;28;20218;-70
2022/02/20 13:41:19;;;;;;;8.85;2.30;;;;;;;;;;5045574;28;20671;-71
2022/02/20 13:43:52;;;;;;;11.27;2.50;;;;;;;;;;5043019;28;20181;-70
2022/02/20 13:46:43;;;;;;;10.93;2.10;;;;;;;;;;5047345;28;20660;-74
2022/02/20 13:49:10;;;;;;;9.75;2.67;;;;;;;;;;5040363;28;20288;-70
2022/02/20 13:51:39;;;;;;;13.23;1.98;;;;;;;;;;5043463;28;20758;-70
2022/02/20 13:54:09;;;;;;;10.45;1.98;;;;;;;;;;5044279;28;20189;-70
2022/02/20 13:56:45;;;;;;;8.70;1.80;;;;;;;;;;5043975;28;20234;-70
2022/02/20 13:59:12;;;;;;;7.53;1.90;;;;;;;;;;5029475;28;20182;-70
2022/02/20 14:01:47;;;;;;;7.50;2.05;;;;;;;;;;5049447;28;20413;-71
2022/02/20 14:04:25;;;;;;;11.68;2.08;;;;;;;;;;5040352;28;20663;-68
2022/02/20 14:07:27;;;;;;;9.05;1.67;;;;;;;;;;5046702;28;20688;-70
2022/02/20 14:09:55;;;;;;;9.20;2.03;;;;;;;;;;5042424;28;20224;-70
2022/02/20 14:12:39;;;;;;;8.13;2.00;;;;;;;;;;5041296;28;20219;-69
2022/02/20 14:15:11;;;;;;;8.77;2.65;;;;;;;;;;5044611;28;20185;-69
2022/02/20 14:18:05;;;;;;;14.18;2.35;;;;;;;;;;5042529;28;20264;-69
2022/02/20 14:20:33;;;;;;;11.32;2.40;;;;;;;;;;5043178;28;20185;-72
2022/02/20 14:23:12;;;;;;;10.40;2.47;;;;;;;;;;5040280;28;20465;-71
2022/02/20 14:25:38;;;;;;;12.57;2.80;;;;;;;;;;5039430;28;20195;-74
2022/02/20 14:28:05;;;;;;;12.55;3.00;;;;;;;;;;5048967;28;20181;-72
2022/02/20 14:30:37;;;;;;;10.20;2.58;;;;;;;;;;5046270;28;20216;-73
2022/02/20 14:33:08;;;;;;;15.25;3.70;;;;;;;;;;5052972;28;20304;-71
2022/02/20 14:35:34;;;;;;;12.98;3.20;;;;;;;;;;5043414;28;20193;-71
2022/02/20 14:38:01;;;;;;;12.15;3.20;;;;;;;;;;5047537;28;20667;-72